Time,TemperatureF,DewpointF,PressureIn,WindDirection,WindDirectionDegrees,WindSpeedMPH,WindSpeedGustMPH,Humidity,HourlyPrecipIn,Conditions,Clouds,dailyrainin,SoftwareType,DateUTC
2013-03-29 00:02:00,35.0,33.0,-100.00,West,277,8.0,10.0,94,-99.99,,,-99.99,,2013-03-29 06:02:00,
2013-03-29 00:32:00,35.0,35.0,-100.00,WNW,283,7.0,10.0,100,-99.99,,,-99.99,,2013-03-29 06:32:00,
2013-03-29 00:52:00,35.0,35.0,-100.00,WSW,256,8.0,16.0,100,-99.99,,,-99.99,,2013-03-29 06:52:00,
2013-03-29 01:02:00,35.0,35.0,-100.00,SW,227,12.0,27.0,100,-99.99,,,-99.99,,2013-03-29 07:02:00,
2013-03-29 01:22:00,33.0,33.0,-100.00,WSW,246,12.0,22.0,100,-99.99,,,-99.99,,2013-03-29 07:22:00,
2013-03-29 01:32:00,33.0,33.0,-100.00,WSW,254,10.0,15.0,100,-99.99,,,-99.99,,2013-03-29 07:32:00,
2013-03-29 01:52:00,33.0,33.0,-100.00,WSW,248,8.0,10.0,100,-99.99,,,-99.99,,2013-03-29 07:52:00,
2013-03-29 02:02:00,33.0,33.0,-100.00,SW,230,7.0,9.0,100,-99.99,,,-99.99,,2013-03-29 08:02:00,
2013-03-29 02:12:00,33.0,33.0,-100.00,SW,230,7.0,9.0,100,-99.99,,,-99.99,,2013-03-29 08:12:00,
2013-03-29 02:22:00,33.0,33.0,-100.00,SW,215,6.0,7.0,100,-99.99,,,-99.99,,2013-03-29 08:22:00,
2013-03-29 02:32:00,34.0,34.0,-100.00,South,186,3.0,5.0,100,-99.99,,,-99.99,,2013-03-29 08:32:00,
2013-03-29 02:53:00,34.0,34.0,-100.00,WSW,243,6.0,15.0,100,-99.99,,,-99.99,,2013-03-29 08:53:00,
2013-03-29 03:02:00,31.0,31.0,-100.00,WSW,241,11.0,18.0,100,-99.99,,,-99.99,,2013-03-29 09:02:00,
2013-03-29 03:12:00,31.0,31.0,-100.00,WSW,241,11.0,18.0,100,-99.99,,,-99.99,,2013-03-29 09:12:00,
2013-03-29 03:22:00,30.0,30.0,-100.00,SW,214,11.0,15.0,100,-99.99,,,-99.99,,2013-03-29 09:22:00,
2013-03-29 03:32:00,31.0,31.0,-100.00,WSW,243,13.0,16.0,100,-99.99,,,-99.99,,2013-03-29 09:32:00,
2013-03-29 03:42:00,31.0,31.0,-100.00,WSW,243,13.0,16.0,100,-99.99,,,-99.99,,2013-03-29 09:42:00,
2013-03-29 03:52:00,32.0,32.0,-100.00,WSW,245,10.0,14.0,100,-99.99,,,-99.99,,2013-03-29 09:52:00,
2013-03-29 04:02:00,33.0,33.0,-100.00,WSW,249,10.0,14.0,100,-99.99,,,-99.99,,2013-03-29 10:02:00,
2013-03-29 04:12:00,33.0,33.0,-100.00,WSW,249,10.0,14.0,100,-99.99,,,-99.99,,2013-03-29 10:12:00,
2013-03-29 04:22:00,33.0,33.0,-100.00,WSW,249,8.0,12.0,100,-99.99,,,-99.99,,2013-03-29 10:22:00,
2013-03-29 04:33:00,32.0,32.0,-100.00,SSW,209,9.0,13.0,100,-99.99,,,-99.99,,2013-03-29 10:33:00,
2013-03-29 04:42:00,32.0,32.0,-100.00,SSW,209,9.0,13.0,100,-99.99,,,-99.99,,2013-03-29 10:42:00,
2013-03-29 04:53:00,32.0,32.0,-100.00,South,187,9.0,12.0,100,-99.99,,,-99.99,,2013-03-29 10:53:00,
2013-03-29 05:03:00,32.0,32.0,-100.00,SSW,192,8.0,11.0,100,-99.99,,,-99.99,,2013-03-29 11:03:00,
2013-03-29 05:12:00,32.0,32.0,-100.00,SSW,192,8.0,11.0,100,-99.99,,,-99.99,,2013-03-29 11:12:00,
2013-03-29 05:23:00,32.0,32.0,-100.00,SSW,201,6.0,9.0,100,-99.99,,,-99.99,,2013-03-29 11:23:00,
2013-03-29 05:32:00,33.0,33.0,-100.00,South,182,8.0,10.0,100,-99.99,,,-99.99,,2013-03-29 11:32:00,
2013-03-29 05:52:00,32.0,32.0,-100.00,South,183,7.0,11.0,100,-99.99,,,-99.99,,2013-03-29 11:52:00,
2013-03-29 06:02:00,32.0,32.0,-100.00,SSW,197,5.0,9.0,100,-99.99,,,-99.99,,2013-03-29 12:02:00,
2013-03-29 06:12:00,32.0,32.0,-100.00,SSW,197,5.0,9.0,100,-99.99,,,-99.99,,2013-03-29 12:12:00,
2013-03-29 06:22:00,33.0,33.0,-100.00,SSW,200,5.0,8.0,100,-99.99,,,-99.99,,2013-03-29 12:22:00,
2013-03-29 06:32:00,33.0,33.0,-100.00,SW,228,6.0,10.0,100,-99.99,,,-99.99,,2013-03-29 12:32:00,
2013-03-29 06:42:00,33.0,33.0,-100.00,SW,228,6.0,10.0,100,-99.99,,,-99.99,,2013-03-29 12:42:00,
2013-03-29 06:53:00,33.0,33.0,-100.00,SW,235,8.0,10.0,100,-99.99,,,-99.99,,2013-03-29 12:53:00,
2013-03-29 07:02:00,33.0,33.0,-100.00,WSW,241,8.0,14.0,100,-99.99,,,-99.99,,2013-03-29 13:02:00,
2013-03-29 07:22:00,32.0,32.0,-100.00,SW,233,8.0,11.0,100,-99.99,,,-99.99,,2013-03-29 13:22:00,
2013-03-29 07:32:00,32.0,32.0,-100.00,WSW,258,10.0,14.0,100,-99.99,,,-99.99,,2013-03-29 13:32:00,
2013-03-29 07:42:00,32.0,32.0,-100.00,WSW,258,10.0,14.0,100,-99.99,,,-99.99,,2013-03-29 13:42:00,
2013-03-29 07:53:00,33.0,33.0,-100.00,West,265,11.0,16.0,100,-99.99,,,-99.99,,2013-03-29 13:53:00,
2013-03-29 08:02:00,32.0,32.0,-100.00,West,261,10.0,14.0,100,-99.99,,,-99.99,,2013-03-29 14:02:00,
2013-03-29 08:12:00,32.0,32.0,-100.00,West,261,10.0,14.0,100,-99.99,,,-99.99,,2013-03-29 14:12:00,
2013-03-29 08:22:00,32.0,32.0,-100.00,WSW,258,10.0,18.0,100,-99.99,,,-99.99,,2013-03-29 14:22:00,
2013-03-29 08:32:00,33.0,33.0,-100.00,West,264,9.0,14.0,100,-99.99,,,-99.99,,2013-03-29 14:32:00,
2013-03-29 08:52:00,33.0,33.0,-100.00,West,264,9.0,15.0,100,-99.99,,,-99.99,,2013-03-29 14:52:00,
2013-03-29 09:02:00,34.0,34.0,-100.00,West,264,10.0,16.0,100,-99.99,,,-99.99,,2013-03-29 15:02:00,
2013-03-29 09:22:00,34.0,34.0,-100.00,West,262,8.0,16.0,100,-99.99,,,-99.99,,2013-03-29 15:22:00,
2013-03-29 09:33:00,35.0,35.0,-100.00,West,260,8.0,13.0,100,-99.99,,,-99.99,,2013-03-29 15:33:00,
2013-03-29 09:53:00,36.0,36.0,-100.00,WSW,257,6.0,12.0,100,-99.99,,,-99.99,,2013-03-29 15:53:00,
2013-03-29 10:03:00,35.0,35.0,-100.00,West,278,6.0,12.0,100,-99.99,,,-99.99,,2013-03-29 16:03:00,
2013-03-29 10:23:00,34.0,34.0,-100.00,West,271,8.0,15.0,100,-99.99,,,-99.99,,2013-03-29 16:23:00,
2013-03-29 10:32:00,35.0,35.0,-100.00,West,267,7.0,16.0,100,-99.99,,,-99.99,,2013-03-29 16:32:00,
2013-03-29 10:53:00,36.0,36.0,-100.00,West,267,7.0,18.0,100,-99.99,,,-99.99,,2013-03-29 16:53:00,
2013-03-29 11:02:00,35.0,35.0,-100.00,West,269,6.0,14.0,100,-99.99,,,-99.99,,2013-03-29 17:02:00,
2013-03-29 11:22:00,35.0,35.0,-100.00,WSW,255,8.0,13.0,100,-99.99,,,-99.99,,2013-03-29 17:22:00,
2013-03-29 11:33:00,37.0,37.0,-100.00,West,259,7.0,16.0,100,-99.99,,,-99.99,,2013-03-29 17:33:00,
2013-03-29 11:52:00,38.0,38.0,-100.00,West,263,5.0,9.0,100,-99.99,,,-99.99,,2013-03-29 17:52:00,
2013-03-29 12:02:00,39.0,39.0,-100.00,West,267,6.0,14.0,100,-99.99,,,-99.99,,2013-03-29 18:02:00,
2013-03-29 12:22:00,43.0,36.0,-100.00,West,278,5.0,11.0,76,-99.99,,,-99.99,,2013-03-29 18:22:00,
2013-03-29 12:32:00,43.0,34.0,-100.00,WNW,288,4.0,9.0,70,-99.99,,,-99.99,,2013-03-29 18:32:00,
2013-03-29 12:52:00,45.0,32.0,-100.00,West,259,4.0,13.0,61,-99.99,,,-99.99,,2013-03-29 18:52:00,
2013-03-29 13:02:00,42.0,31.0,-100.00,West,281,5.0,11.0,65,-99.99,,,-99.99,,2013-03-29 19:02:00,
2013-03-29 13:12:00,42.0,31.0,-100.00,West,281,5.0,11.0,65,-99.99,,,-99.99,,2013-03-29 19:12:00,
2013-03-29 13:22:00,42.0,30.0,-100.00,West,279,5.0,13.0,63,-99.99,,,-99.99,,2013-03-29 19:22:00,
2013-03-29 13:32:00,44.0,32.0,-100.00,NW,304,3.0,12.0,62,-99.99,,,-99.99,,2013-03-29 19:32:00,
2013-03-29 13:52:00,41.0,32.0,-100.00,SW,235,7.0,14.0,69,-99.99,,,-99.99,,2013-03-29 19:52:00,
2013-03-29 14:02:00,40.0,31.0,-100.00,West,268,6.0,12.0,71,-99.99,,,-99.99,,2013-03-29 20:02:00,
2013-03-29 14:12:00,40.0,31.0,-100.00,West,268,6.0,12.0,71,-99.99,,,-99.99,,2013-03-29 20:12:00,
2013-03-29 14:22:00,40.0,32.0,-100.00,West,266,9.0,17.0,74,-99.99,,,-99.99,,2013-03-29 20:22:00,
2013-03-29 14:32:00,40.0,34.0,-100.00,West,271,8.0,16.0,78,-99.99,,,-99.99,,2013-03-29 20:32:00,
2013-03-29 14:52:00,40.0,34.0,-100.00,West,263,9.0,16.0,80,-99.99,,,-99.99,,2013-03-29 20:52:00,
2013-03-29 15:02:00,43.0,35.0,-100.00,West,276,4.0,12.0,72,-99.99,,,-99.99,,2013-03-29 21:02:00,
2013-03-29 15:32:00,40.0,36.0,-100.00,West,273,10.0,19.0,85,-99.99,,,-99.99,,2013-03-29 21:32:00,
2013-03-29 16:03:00,40.0,37.0,-100.00,West,263,7.0,14.0,90,-99.99,,,-99.99,,2013-03-29 22:03:00,
2013-03-29 16:22:00,41.0,37.0,-100.00,West,264,7.0,16.0,87,-99.99,,,-99.99,,2013-03-29 22:22:00,
2013-03-29 16:33:00,42.0,37.0,-100.00,West,267,7.0,16.0,81,-99.99,,,-99.99,,2013-03-29 22:33:00,
2013-03-29 16:53:00,40.0,36.0,-100.00,West,264,13.0,26.0,84,-99.99,,,-99.99,,2013-03-29 22:53:00,
2013-03-29 17:02:00,40.0,35.0,-100.00,West,269,11.0,25.0,83,-99.99,,,-99.99,,2013-03-29 23:02:00,
2013-03-29 17:22:00,40.0,35.0,-100.00,West,264,10.0,23.0,82,-99.99,,,-99.99,,2013-03-29 23:22:00,
2013-03-29 17:32:00,40.0,36.0,-100.00,West,266,8.0,21.0,85,-99.99,,,-99.99,,2013-03-29 23:32:00,
2013-03-29 17:52:00,39.0,38.0,-100.00,West,268,11.0,21.0,95,-99.99,,,-99.99,,2013-03-29 23:52:00,
2013-03-29 18:02:00,40.0,39.0,-100.00,West,271,8.0,15.0,98,-99.99,,,-99.99,,2013-03-30 00:02:00,
2013-03-29 18:22:00,41.0,40.0,-100.00,WNW,286,3.0,12.0,96,-99.99,,,-99.99,,2013-03-30 00:22:00,
2013-03-29 18:32:00,43.0,38.0,-100.00,West,279,3.0,12.0,83,-99.99,,,-99.99,,2013-03-30 00:32:00,
2013-03-29 18:53:00,42.0,38.0,-100.00,West,264,4.0,12.0,85,-99.99,,,-99.99,,2013-03-30 00:53:00,
2013-03-29 19:02:00,39.0,39.0,-100.00,West,277,6.0,12.0,100,-99.99,,,-99.99,,2013-03-30 01:02:00,
2013-03-29 19:22:00,40.0,40.0,-100.00,West,281,6.0,13.0,100,-99.99,,,-99.99,,2013-03-30 01:22:00,
2013-03-29 19:32:00,40.0,39.0,-100.00,WNW,284,5.0,15.0,95,-99.99,,,-99.99,,2013-03-30 01:32:00,
2013-03-29 19:52:00,38.0,38.0,-100.00,WNW,287,5.0,15.0,100,-99.99,,,-99.99,,2013-03-30 01:52:00,
2013-03-29 20:02:00,37.0,37.0,-100.00,West,279,5.0,10.0,100,-99.99,,,-99.99,,2013-03-30 02:02:00,
2013-03-29 20:22:00,36.0,36.0,-100.00,WNW,282,6.0,18.0,100,-99.99,,,-99.99,,2013-03-30 02:22:00,
2013-03-29 20:32:00,35.0,35.0,-100.00,West,278,6.0,18.0,100,-99.99,,,-99.99,,2013-03-30 02:32:00,
2013-03-29 20:53:00,35.0,35.0,-100.00,WNW,287,6.0,14.0,100,-99.99,,,-99.99,,2013-03-30 02:53:00,
2013-03-29 21:02:00,34.0,34.0,-100.00,WNW,287,4.0,11.0,100,-99.99,,,-99.99,,2013-03-30 03:02:00,
2013-03-29 21:22:00,34.0,34.0,-100.00,WNW,284,6.0,14.0,100,-99.99,,,-99.99,,2013-03-30 03:22:00,
2013-03-29 21:33:00,34.0,34.0,-100.00,West,281,6.0,12.0,100,-99.99,,,-99.99,,2013-03-30 03:33:00,
2013-03-29 21:53:00,34.0,34.0,-100.00,WNW,288,5.0,11.0,100,-99.99,,,-99.99,,2013-03-30 03:53:00,
2013-03-29 22:02:00,34.0,34.0,-100.00,West,278,7.0,15.0,100,-99.99,,,-99.99,,2013-03-30 04:02:00,
2013-03-29 22:23:00,34.0,34.0,-100.00,West,278,6.0,13.0,100,-99.99,,,-99.99,,2013-03-30 04:23:00,
2013-03-29 22:32:00,34.0,34.0,-100.00,West,280,8.0,13.0,100,-99.99,,,-99.99,,2013-03-30 04:32:00,
2013-03-29 22:53:00,34.0,34.0,-100.00,West,278,10.0,15.0,100,-99.99,,,-99.99,,2013-03-30 04:53:00,
2013-03-29 23:02:00,34.0,34.0,-100.00,WNW,282,6.0,12.0,100,-99.99,,,-99.99,,2013-03-30 05:02:00,
2013-03-29 23:22:00,34.0,34.0,-100.00,WNW,283,6.0,10.0,100,-99.99,,,-99.99,,2013-03-30 05:22:00,
2013-03-29 23:32:00,34.0,34.0,-100.00,WNW,282,7.0,12.0,100,-99.99,,,-99.99,,2013-03-30 05:32:00,
2013-03-29 23:52:00,34.0,34.0,-100.00,WNW,282,8.0,12.0,100,-99.99,,,-99.99,,2013-03-30 05:52:00,